Time;durP1;ratioP1;P1;durP2;ratioP2;P2;SDS_P1;SDS_P2;PMS_P1;PMS_P2;Temp;Humidity;BMP_temperature;BMP_pressure;BME280_temperature;BME280_humidity;BME280_pressure;Samples;Min_cycle;Max_cycle;Signal;HPM_P1;HPM_P2
2021/03/03 00:02:08;;;;;;;38.92;29.15;;;;;;;0.95;100.00;102483.97;4974975;28;20034;-85
2021/03/03 00:04:33;;;;;;;35.10;24.75;;;;;;;1.10;100.00;102497.84;4975189;28;20117;-85
2021/03/03 00:06:59;;;;;;;42.05;29.95;;;;;;;1.54;100.00;102491.41;4975034;28;20035;-85
2021/03/03 00:09:24;;;;;;;34.63;30.92;;;;;;;0.72;100.00;102487.22;4975301;28;20064;-85
2021/03/03 00:11:50;;;;;;;35.20;27.98;;;;;;;0.27;100.00;102490.03;4958375;28;20356;-85
2021/03/03 00:14:16;;;;;;;76.63;41.70;;;;;;;-0.08;100.00;102495.66;4956938;28;20046;-85
2021/03/03 00:16:42;;;;;;;74.72;39.63;;;;;;;-0.01;100.00;102496.97;4958052;28;20060;-85
2021/03/03 00:19:08;;;;;;;63.75;37.92;;;;;;;0.12;100.00;102497.06;4962206;28;20035;-86
2021/03/03 00:21:33;;;;;;;56.95;37.00;;;;;;;-0.06;100.00;102499.03;4958721;28;20097;-86
2021/03/03 00:24:00;;;;;;;59.00;36.80;;;;;;;0.08;100.00;102492.94;4986672;28;20061;-85
2021/03/03 00:26:27;;;;;;;53.92;29.35;;;;;;;-0.27;100.00;102495.94;4975057;28;20037;-85
2021/03/03 00:28:56;;;;;;;50.70;29.80;;;;;;;-0.37;100.00;102497.41;4974858;28;20027;-85
2021/03/03 00:31:22;;;;;;;53.28;31.15;;;;;;;-0.62;100.00;102500.63;4957244;28;20112;-85
2021/03/03 00:33:49;;;;;;;50.08;31.02;;;;;;;0.04;100.00;102506.31;4963726;28;20030;-85
2021/03/03 00:36:14;;;;;;;54.22;34.83;;;;;;;-0.25;100.00;102498.44;4956309;28;20039;-85
2021/03/03 00:38:40;;;;;;;48.85;28.95;;;;;;;-0.33;100.00;102496.31;4974619;28;20379;-85
2021/03/03 00:41:06;;;;;;;48.70;27.17;;;;;;;-0.33;100.00;102503.31;4957436;28;20045;-85
2021/03/03 00:43:31;;;;;;;42.72;29.08;;;;;;;-0.29;100.00;102503.00;4974234;28;20038;-85
2021/03/03 00:45:57;;;;;;;44.25;30.08;;;;;;;-0.56;100.00;102497.66;4957887;28;20034;-85
2021/03/03 00:48:22;;;;;;;38.65;24.77;;;;;;;-0.71;100.00;102498.53;4953626;28;20046;-85
2021/03/03 00:50:48;;;;;;;48.95;34.40;;;;;;;-0.51;100.00;102495.63;4957406;28;20117;-85
2021/03/03 00:53:14;;;;;;;50.05;30.05;;;;;;;-0.62;100.00;102502.41;4956441;28;20035;-85
2021/03/03 00:55:40;;;;;;;46.47;27.27;;;;;;;-0.76;100.00;102498.81;4956928;28;20022;-85
2021/03/03 00:58:06;;;;;;;46.63;27.35;;;;;;;-0.92;100.00;102500.63;4956142;28;20023;-85
2021/03/03 01:00:32;;;;;;;48.42;31.55;;;;;;;-0.39;100.00;102491.44;4949721;28;20066;-85
2021/03/03 01:02:59;;;;;;;40.60;30.90;;;;;;;-0.49;100.00;102498.13;4973444;28;20046;-85
2021/03/03 01:05:24;;;;;;;41.22;26.48;;;;;;;-0.42;100.00;102494.25;4956266;28;20106;-85
2021/03/03 01:07:50;;;;;;;43.78;25.80;;;;;;;-0.83;100.00;102500.09;4977274;28;20038;-85
2021/03/03 01:10:16;;;;;;;36.92;26.05;;;;;;;-0.85;100.00;102501.09;4977379;28;20181;-85
2021/03/03 01:12:42;;;;;;;42.35;28.63;;;;;;;-0.82;100.00;102495.72;4961253;28;20062;-85
2021/03/03 01:15:08;;;;;;;46.30;32.45;;;;;;;-0.73;100.00;102495.19;4978421;28;20140;-85
2021/03/03 01:17:34;;;;;;;42.35;25.88;;;;;;;-0.73;100.00;102496.03;4964650;28;20035;-85
2021/03/03 01:19:59;;;;;;;41.08;26.63;;;;;;;-0.77;100.00;102494.53;4960237;28;20038;-85
2021/03/03 01:22:25;;;;;;;36.60;25.88;;;;;;;-1.01;100.00;102498.53;4976977;28;20066;-85
2021/03/03 01:24:51;;;;;;;43.38;28.10;;;;;;;-1.29;100.00;102489.66;4960236;28;20113;-85
2021/03/03 01:27:17;;;;;;;42.90;31.40;;;;;;;-1.08;100.00;102495.44;4959020;28;20030;-85
2021/03/03 01:29:42;;;;;;;44.08;28.75;;;;;;;-1.16;100.00;102495.84;4960157;28;20027;-85
2021/03/03 01:32:08;;;;;;;40.97;29.23;;;;;;;-1.14;100.00;102506.22;4960938;28;20031;-85
2021/03/03 01:34:34;;;;;;;45.53;28.75;;;;;;;-1.52;100.00;102503.09;4961047;28;20033;-85
2021/03/03 01:36:59;;;;;;;48.13;29.70;;;;;;;-1.31;100.00;102503.69;4961083;28;20033;-85
2021/03/03 01:39:25;;;;;;;44.70;30.48;;;;;;;-1.58;100.00;102508.66;4952106;28;20383;-85
2021/03/03 01:41:50;;;;;;;47.53;30.83;;;;;;;-1.53;100.00;102512.69;4960927;28;20031;-85
2021/03/03 01:44:16;;;;;;;49.33;29.55;;;;;;;-1.55;100.00;102498.91;4977413;28;20219;-85
2021/03/03 01:46:41;;;;;;;43.83;28.02;;;;;;;-1.74;100.00;102499.06;4960505;28;20412;-84
2021/03/03 01:49:06;;;;;;;50.35;30.92;;;;;;;-1.65;100.00;102502.94;4960741;28;20137;-85
2021/03/03 01:51:33;;;;;;;56.65;33.67;;;;;;;-1.75;100.00;102499.16;4956638;28;20468;-85
2021/03/03 01:53:58;;;;;;;47.80;32.78;;;;;;;-1.69;100.00;102504.03;4959685;28;20467;-85
2021/03/03 01:56:24;;;;;;;50.33;32.15;;;;;;;-1.76;100.00;102490.47;4977243;28;20038;-85
2021/03/03 01:58:49;;;;;;;49.95;33.28;;;;;;;-1.54;100.00;102507.56;4977461;28;20089;-85
2021/03/03 02:01:15;;;;;;;69.35;45.83;;;;;;;-1.72;100.00;102494.63;4960323;28;20035;-85
2021/03/03 02:03:41;;;;;;;53.88;33.40;;;;;;;-1.90;100.00;102503.41;4969669;28;20046;-85
2021/03/03 02:06:31;;;;;;;47.78;29.15;;;;;;;-1.91;100.00;102496.50;4959596;28;20138;-85
2021/03/03 02:09:17;;;;;;;54.90;30.58;;;;;;;-1.95;100.00;102495.84;4959673;28;20215;-85
2021/03/03 02:11:58;;;;;;;52.08;34.25;;;;;;;-1.85;100.00;102497.06;4975680;28;20097;-85
2021/03/03 02:14:27;;;;;;;51.00;32.10;;;;;;;-1.98;100.00;102495.16;4967012;28;20100;-85
2021/03/03 02:16:54;;;;;;;50.95;33.22;;;;;;;-1.88;100.00;102499.78;4970517;28;20037;-85
2021/03/03 02:19:28;;;;;;;50.63;32.22;;;;;;;-2.04;100.00;102511.09;4958371;28;20462;-85
2021/03/03 02:22:19;;;;;;;49.88;31.60;;;;;;;-2.02;100.00;102504.06;4972367;28;20479;-85
2021/03/03 02:24:52;;;;;;;52.05;31.52;;;;;;;-2.09;100.00;102514.81;4971348;28;20049;-85
2021/03/03 02:27:21;;;;;;;52.63;33.58;;;;;;;-1.78;100.00;102517.56;4956472;28;20450;-85
2021/03/03 02:29:48;;;;;;;52.78;32.90;;;;;;;-1.95;100.00;102514.06;4956405;28;20456;-85
2021/03/03 02:32:17;;;;;;;51.53;32.33;;;;;;;-1.98;100.00;102513.38;4959346;28;20061;-85
2021/03/03 02:34:44;;;;;;;49.00;29.92;;;;;;;-2.03;100.00;102518.00;4971036;28;20428;-85
2021/03/03 02:37:12;;;;;;;58.65;35.15;;;;;;;-2.08;100.00;102520.84;4957585;28;20448;-85
2021/03/03 02:39:38;;;;;;;50.55;33.00;;;;;;;-2.10;100.00;102528.72;4970033;28;20038;-85
2021/03/03 02:42:05;;;;;;;66.00;36.45;;;;;;;-1.94;100.00;102527.91;4972476;28;20041;-85
2021/03/03 02:44:32;;;;;;;53.88;33.08;;;;;;;-2.37;100.00;102527.53;4956853;28;20059;-85
2021/03/03 02:46:57;;;;;;;53.75;34.65;;;;;;;-2.21;100.00;102522.38;4949853;29;20030;-85
2021/03/03 02:49:25;;;;;;;53.17;31.75;;;;;;;-2.15;100.00;102537.69;4959264;28;20027;-85
2021/03/03 02:51:50;;;;;;;55.03;34.88;;;;;;;-1.96;100.00;102537.59;4959574;28;20054;-85
2021/03/03 02:54:17;;;;;;;51.40;31.85;;;;;;;-2.31;100.00;102525.47;4976256;28;20065;-85
2021/03/03 02:56:43;;;;;;;59.05;34.65;;;;;;;-2.16;100.00;102538.63;4951335;28;20023;-85
2021/03/03 02:59:18;;;;;;;57.63;37.95;;;;;;;-2.29;100.00;102550.59;4959391;28;20125;-85
2021/03/03 03:01:47;;;;;;;58.95;36.33;;;;;;;-2.83;100.00;102538.47;4945064;28;20042;-85
2021/03/03 03:04:14;;;;;;;65.03;34.65;;;;;;;-2.46;100.00;102548.81;4959019;28;20491;-85
2021/03/03 03:06:43;;;;;;;56.03;33.50;;;;;;;-2.38;100.00;102542.31;4953065;28;20518;-85
2021/03/03 03:09:13;;;;;;;53.22;34.05;;;;;;;-2.59;100.00;102546.81;4959164;28;20030;-84
2021/03/03 03:11:48;;;;;;;55.55;36.08;;;;;;;-2.57;100.00;102555.41;4973719;28;20407;-85
2021/03/03 03:14:18;;;;;;;58.72;34.33;;;;;;;-2.38;100.00;102557.09;4966348;28;20034;-85
2021/03/03 03:16:46;;;;;;;60.00;34.67;;;;;;;-2.40;100.00;102556.31;4964477;28;20026;-85
2021/03/03 03:19:15;;;;;;;58.72;34.13;;;;;;;-2.71;100.00;102557.00;4961635;28;20376;-85
2021/03/03 03:21:44;;;;;;;60.83;35.47;;;;;;;-2.52;100.00;102570.78;4975349;28;20455;-85
2021/03/03 03:24:10;;;;;;;55.03;34.60;;;;;;;-2.66;100.00;102562.81;4974241;28;20057;-85
2021/03/03 03:26:36;;;;;;;47.85;30.40;;;;;;;-2.56;100.00;102566.66;4972641;28;20022;-85
2021/03/03 03:29:03;;;;;;;49.47;28.02;;;;;;;-2.44;100.00;102581.66;4966683;28;20198;-85
2021/03/03 03:31:29;;;;;;;47.20;28.27;;;;;;;-2.59;100.00;102582.41;4948489;28;20027;-85
2021/03/03 03:33:55;;;;;;;49.08;30.35;;;;;;;-2.86;100.00;102574.19;4958806;28;20049;-85
2021/03/03 03:36:21;;;;;;;51.10;32.03;;;;;;;-2.79;100.00;102575.56;4975058;28;20038;-85
2021/03/03 03:38:46;;;;;;;50.83;33.65;;;;;;;-2.45;100.00;102582.59;4975266;28;20031;-85
2021/03/03 03:41:13;;;;;;;60.63;35.65;;;;;;;-2.43;100.00;102583.34;4958693;28;20133;-85
2021/03/03 03:43:39;;;;;;;55.60;32.80;;;;;;;-2.39;100.00;102587.50;4974877;28;20101;-85
2021/03/03 03:46:07;;;;;;;49.65;31.85;;;;;;;-2.71;100.00;102581.25;4958590;28;20026;-85
2021/03/03 03:48:34;;;;;;;52.40;32.78;;;;;;;-2.88;100.00;102573.41;4975136;28;20042;-85
2021/03/03 03:51:03;;;;;;;53.08;32.88;;;;;;;-2.70;100.00;102579.47;4957795;28;20035;-85
2021/03/03 03:53:30;;;;;;;49.17;30.83;;;;;;;-2.87;100.00;102577.72;4955336;28;20026;-85
2021/03/03 03:55:55;;;;;;;53.55;34.70;;;;;;;-2.87;100.00;102578.53;4953263;28;20535;-85
2021/03/03 03:58:21;;;;;;;65.10;36.22;;;;;;;-2.90;100.00;102588.25;4957433;28;20039;-85
2021/03/03 04:00:48;;;;;;;76.50;44.03;;;;;;;-2.83;100.00;102594.84;4957693;28;20039;-85
2021/03/03 04:03:13;;;;;;;58.80;35.88;;;;;;;-3.00;100.00;102598.22;4949941;28;20375;-84
2021/03/03 04:05:39;;;;;;;61.63;37.75;;;;;;;-2.96;100.00;102594.59;4972662;28;20042;-85
2021/03/03 04:08:04;;;;;;;57.38;34.95;;;;;;;-3.05;100.00;102590.66;4946877;28;20034;-85
2021/03/03 04:10:30;;;;;;;63.00;36.90;;;;;;;-2.99;100.00;102599.94;4978257;28;20058;-85
2021/03/03 04:12:56;;;;;;;60.97;35.58;;;;;;;-2.94;100.00;102600.53;4963631;28;20042;-85
2021/03/03 04:15:23;;;;;;;88.03;49.40;;;;;;;-2.82;100.00;102605.16;4976199;28;20030;-85
2021/03/03 04:17:49;;;;;;;83.72;48.05;;;;;;;-2.92;100.00;102609.13;4984403;28;20045;-85
2021/03/03 04:20:16;;;;;;;71.53;43.53;;;;;;;-3.15;100.00;102599.78;4973020;28;20027;-85
2021/03/03 04:22:42;;;;;;;71.00;41.65;;;;;;;-3.29;100.00;102605.63;4961032;28;20146;-85
2021/03/03 04:25:10;;;;;;;72.20;43.28;;;;;;;-2.78;100.00;102609.31;4975226;28;20480;-85
2021/03/03 04:27:36;;;;;;;62.50;41.97;;;;;;;-3.27;100.00;102603.81;4963302;28;20041;-78
2021/03/03 04:30:13;;;;;;;68.65;41.70;;;;;;;-3.34;100.00;102617.13;4971339;28;20029;-83
2021/03/03 04:32:38;;;;;;;68.75;39.33;;;;;;;-3.15;100.00;102604.13;4968045;28;20034;-86
2021/03/03 04:35:06;;;;;;;72.68;39.03;;;;;;;-3.02;100.00;102603.50;4984453;28;20458;-85
2021/03/03 04:37:32;;;;;;;66.53;38.90;;;;;;;-2.90;100.00;102611.66;4984526;28;20030;-85
2021/03/03 04:39:57;;;;;;;70.20;41.53;;;;;;;-2.89;100.00;102611.56;4964636;28;20034;-82
2021/03/03 04:42:23;;;;;;;95.82;57.13;;;;;;;-3.13;100.00;102615.31;4980075;28;20026;-84
2021/03/03 04:44:48;;;;;;;79.40;46.47;;;;;;;-3.19;100.00;102621.63;4967754;28;20037;-83
2021/03/03 04:47:14;;;;;;;78.00;49.80;;;;;;;-3.10;100.00;102618.63;4973554;28;20111;-81
2021/03/03 04:49:39;;;;;;;69.25;40.83;;;;;;;-3.12;100.00;102622.19;4972470;28;20034;-84
2021/03/03 04:52:05;;;;;;;60.80;37.10;;;;;;;-3.25;100.00;102620.16;4964796;28;20356;-84
2021/03/03 04:54:31;;;;;;;65.00;41.25;;;;;;;-3.53;100.00;102628.34;4969297;28;20022;-84
2021/03/03 04:56:57;;;;;;;73.97;42.45;;;;;;;-3.61;100.00;102629.59;4984892;28;20038;-84
2021/03/03 04:59:22;;;;;;;77.22;43.20;;;;;;;-3.53;100.00;102632.72;4974331;28;20474;-84
2021/03/03 05:01:48;;;;;;;72.80;42.47;;;;;;;-3.26;100.00;102641.03;4960484;28;20062;-84
2021/03/03 05:04:13;;;;;;;76.05;43.97;;;;;;;-3.08;100.00;102639.34;4964334;28;20470;-84
2021/03/03 05:06:39;;;;;;;91.03;54.35;;;;;;;-3.24;100.00;102647.00;4977994;28;20141;-84
2021/03/03 05:09:04;;;;;;;95.53;57.75;;;;;;;-3.23;100.00;102646.09;4982443;28;20113;-84
2021/03/03 05:11:30;;;;;;;84.03;49.28;;;;;;;-2.83;100.00;102649.47;4982027;28;20109;-81
2021/03/03 05:13:56;;;;;;;66.97;35.22;;;;;;;-1.77;100.00;102649.50;4971582;28;21167;-83
2021/03/03 05:16:21;;;;;;;60.35;35.65;;;;;;;-2.77;100.00;102660.41;4963347;28;20054;-83
2021/03/03 05:18:47;;;;;;;63.20;36.20;;;;;;;-2.52;100.00;102654.03;4982791;28;20030;-83
2021/03/03 05:21:12;;;;;;;67.95;39.20;;;;;;;-2.38;100.00;102653.41;4968714;28;20434;-82
2021/03/03 05:23:38;;;;;;;83.43;56.88;;;;;;;6.98;100.00;102678.13;4972385;28;20037;-78
2021/03/03 05:26:38;;;;;;;45.85;40.45;;;;;;;-1.08;100.00;102664.97;4976488;28;20034;-85
2021/03/03 05:29:19;;;;;;;60.97;40.40;;;;;;;-2.03;100.00;102661.22;4977530;28;20064;-85
2021/03/03 05:31:45;;;;;;;167.85;106.22;;;;;;;-1.95;100.00;102659.91;4977210;28;20053;-85
2021/03/03 05:34:10;;;;;;;112.30;71.00;;;;;;;-1.83;100.00;102665.44;4976777;28;20443;-85
2021/03/03 05:36:35;;;;;;;94.30;61.97;;;;;;;-1.90;100.00;102670.13;4977698;28;20034;-85
2021/03/03 05:39:01;;;;;;;90.57;60.30;;;;;;;-1.61;100.00;102666.84;4977214;28;20451;-85
2021/03/03 05:41:27;;;;;;;69.90;46.00;;;;;;;-1.70;100.00;102677.75;4976997;28;20113;-85
2021/03/03 05:43:53;;;;;;;164.57;110.72;;;;;;;-1.30;100.00;102680.94;4977099;28;20041;-85
2021/03/03 05:46:18;;;;;;;95.90;61.65;;;;;;;-1.49;100.00;102681.03;4994267;28;20537;-85
2021/03/03 05:48:49;;;;;;;63.38;42.17;;;;;;;-1.22;100.00;102678.72;4977099;28;20085;-85
2021/03/03 05:51:15;;;;;;;72.20;44.58;;;;;;;-1.09;100.00;102680.69;4977815;28;20037;-85
2021/03/03 05:53:41;;;;;;;107.90;57.35;;;;;;;-1.02;100.00;102680.28;4997783;28;20030;-85
2021/03/03 05:56:08;;;;;;;189.23;95.50;;;;;;;-1.13;100.00;102684.41;4980692;28;20040;-85
2021/03/03 05:58:36;;;;;;;225.45;124.05;;;;;;;-0.69;100.00;102689.81;4980752;28;20030;-85
2021/03/03 06:01:05;;;;;;;138.02;79.90;;;;;;;-0.44;100.00;102686.69;4997699;28;20462;-85
2021/03/03 06:03:30;;;;;;;101.80;62.80;;;;;;;-0.18;100.00;102686.97;4996714;28;20056;-85
2021/03/03 06:05:57;;;;;;;151.73;103.57;;;;;;;0.08;100.00;102685.47;4980340;28;20077;-85
2021/03/03 06:08:25;;;;;;;71.30;44.03;;;;;;;0.08;100.00;102690.69;4980720;28;20245;-85
2021/03/03 06:10:51;;;;;;;129.60;91.38;;;;;;;0.41;100.00;102695.72;4996851;28;20037;-85
2021/03/03 06:13:17;;;;;;;51.35;36.50;;;;;;;0.52;100.00;102695.94;4980334;28;20026;-85
2021/03/03 06:15:43;;;;;;;57.53;34.83;;;;;;;0.45;100.00;102689.38;4980586;28;20038;-85
2021/03/03 06:18:11;;;;;;;86.57;52.47;;;;;;;0.48;100.00;102686.56;4997326;28;20034;-85
2021/03/03 06:20:41;;;;;;;84.82;53.08;;;;;;;0.86;100.00;102688.63;4980468;28;20026;-85
2021/03/03 06:23:26;;;;;;;51.30;36.17;;;;;;;1.21;100.00;102696.94;4997299;28;20390;-85
2021/03/03 06:26:03;;;;;;;60.35;42.38;;;;;;;1.43;100.00;102699.03;4997153;28;20038;-85
2021/03/03 06:28:45;;;;;;;40.30;29.30;;;;;;;1.38;100.00;102693.22;4980257;28;20080;-85
2021/03/03 06:31:26;;;;;;;78.20;57.35;;;;;;;1.89;100.00;102693.41;4980109;28;20098;-85
2021/03/03 06:33:53;;;;;;;39.88;32.65;;;;;;;2.10;100.00;102691.16;4997366;28;20527;-85
2021/03/03 06:36:21;;;;;;;54.58;45.92;;;;;;;1.88;100.00;102683.88;4979914;28;20118;-82
2021/03/03 06:38:46;;;;;;;33.88;28.05;;;;;;;2.25;100.00;102682.25;4997407;28;20022;-85
2021/03/03 06:41:12;;;;;;;36.28;31.35;;;;;;;2.32;100.00;102689.72;4979872;28;20037;-85
2021/03/03 06:43:37;;;;;;;39.17;28.92;;;;;;;2.64;100.00;102692.78;4979700;28;20459;-85
2021/03/03 06:46:18;;;;;;;44.85;39.42;;;;;;;2.86;100.00;102687.72;4980042;28;20034;-85
2021/03/03 06:48:45;;;;;;;56.72;48.50;;;;;;;2.98;100.00;102691.25;4995938;28;20036;-84
2021/03/03 06:51:22;;;;;;;50.20;45.00;;;;;;;3.08;100.00;102692.28;4995852;28;20459;-84
2021/03/03 06:53:49;;;;;;;29.95;26.27;;;;;;;3.35;100.00;102693.88;4979455;28;20038;-85
2021/03/03 06:56:32;;;;;;;32.90;29.35;;;;;;;3.73;100.00;102683.22;4996510;28;20030;-85
2021/03/03 06:59:16;;;;;;;35.97;30.35;;;;;;;3.64;100.00;102690.00;4979428;28;20034;-83
2021/03/03 07:01:49;;;;;;;33.47;30.27;;;;;;;3.60;100.00;102690.31;4979443;28;20030;-85
2021/03/03 07:04:37;;;;;;;36.22;32.42;;;;;;;4.11;100.00;102685.63;4994634;28;20026;-81
2021/03/03 07:07:18;;;;;;;41.70;37.53;;;;;;;4.32;100.00;102692.84;4973702;28;20407;-85
2021/03/03 07:09:53;;;;;;;39.90;35.70;;;;;;;4.76;100.00;102691.22;4988236;28;20022;-83
2021/03/03 07:12:33;;;;;;;39.95;32.85;;;;;;;4.66;100.00;102693.75;4969919;28;20111;-83
2021/03/03 07:15:01;;;;;;;37.55;32.40;;;;;;;5.02;100.00;102684.75;4975731;28;20027;-82
2021/03/03 07:17:34;;;;;;;38.10;31.98;;;;;;;5.52;100.00;102686.91;4976583;28;20030;-82
2021/03/03 07:20:02;;;;;;;38.10;32.88;;;;;;;5.49;100.00;102687.16;4986390;28;20014;-82
2021/03/03 07:22:30;;;;;;;34.17;30.90;;;;;;;6.33;100.00;102693.41;4981172;28;20033;-83
2021/03/03 07:25:09;;;;;;;31.67;28.27;;;;;;;6.29;100.00;102684.06;4995056;28;20026;-79
2021/03/03 07:27:36;;;;;;;32.25;29.05;;;;;;;6.05;100.00;102684.34;4972305;28;20041;-81
2021/03/03 07:30:11;;;;;;;39.65;35.80;;;;;;;6.61;100.00;102685.78;4977647;28;20054;-81
2021/03/03 07:32:38;;;;;;;39.88;35.75;;;;;;;6.86;100.00;102689.75;4991273;28;20038;-79
2021/03/03 07:35:09;;;;;;;41.25;37.65;;;;;;;7.17;100.00;102687.94;4979062;28;20018;-81
2021/03/03 07:37:48;;;;;;;41.22;37.92;;;;;;;7.42;100.00;102688.41;4973568;28;20034;-83
2021/03/03 07:40:17;;;;;;;40.55;36.53;;;;;;;7.29;100.00;102683.34;4994934;28;20100;-80
2021/03/03 07:42:52;;;;;;;42.90;38.63;;;;;;;8.63;100.00;102679.94;4983060;28;20101;-81
2021/03/03 07:45:35;;;;;;;34.97;31.48;;;;;;;8.49;100.00;102676.75;4994412;28;20122;-81
2021/03/03 07:48:07;;;;;;;36.95;33.22;;;;;;;8.66;100.00;102680.47;5006725;28;20114;-83
2021/03/03 07:50:41;;;;;;;46.75;37.60;;;;;;;8.69;100.00;102688.13;4977629;28;20031;-81
2021/03/03 07:53:09;;;;;;;33.60;30.58;;;;;;;8.63;100.00;102687.88;4971690;28;20407;-81
2021/03/03 07:55:44;;;;;;;39.90;36.38;;;;;;;8.75;100.00;102683.25;4977467;28;20030;-83
2021/03/03 07:58:12;;;;;;;38.58;34.88;;;;;;;9.45;100.00;102678.25;4977308;28;20031;-79
2021/03/03 08:00:40;;;;;;;44.00;40.40;;;;;;;9.82;100.00;102678.91;4977403;28;20441;-79
2021/03/03 08:03:08;;;;;;;34.85;31.30;;;;;;;8.80;100.00;102680.97;4977505;28;20049;-78
2021/03/03 08:05:39;;;;;;;38.58;34.70;;;;;;;9.69;100.00;102686.44;4993295;28;20046;-78
2021/03/03 08:08:33;;;;;;;43.10;38.83;;;;;;;9.78;100.00;102682.84;4965850;28;20034;-86
2021/03/03 08:11:07;;;;;;;40.97;37.75;;;;;;;10.61;100.00;102693.09;4969713;28;20018;-81
2021/03/03 08:13:39;;;;;;;40.53;36.47;;;;;;;10.70;100.00;102691.31;4971706;28;20029;-81
2021/03/03 08:16:08;;;;;;;42.42;38.83;;;;;;;10.68;100.00;102687.97;4977868;28;20071;-85
2021/03/03 08:18:56;;;;;;;44.40;40.80;;;;;;;10.74;100.00;102695.31;4977760;28;20034;-86
2021/03/03 08:21:25;;;;;;;45.28;41.10;;;;;;;10.65;100.00;102688.28;4962220;28;20027;-81
2021/03/03 08:23:58;;;;;;;35.45;32.40;;;;;;;9.89;100.00;102686.25;4968830;28;20050;-83
2021/03/03 08:26:31;;;;;;;38.92;34.88;;;;;;;11.40;100.00;102697.19;4978139;28;20026;-83
2021/03/03 08:29:13;;;;;;;39.10;35.67;;;;;;;11.54;94.30;102686.94;4985128;28;20443;-83
2021/03/03 08:31:40;;;;;;;45.20;41.33;;;;;;;12.20;96.88;102677.97;4982856;28;20100;-80
2021/03/03 08:34:10;;;;;;;36.40;33.20;;;;;;;11.13;93.62;102687.66;4994616;28;20018;-80
2021/03/03 08:36:38;;;;;;;38.45;35.05;;;;;;;11.64;91.08;102684.94;4974230;28;20122;-84
2021/03/03 08:39:10;;;;;;;41.63;38.10;;;;;;;11.82;92.08;102672.28;4961648;28;20037;-84
2021/03/03 08:41:39;;;;;;;43.97;40.75;;;;;;;11.58;88.38;102672.28;4979917;28;20176;-80
2021/03/03 08:44:05;;;;;;;37.22;34.22;;;;;;;11.83;84.02;102673.97;4983568;28;20112;-82
2021/03/03 08:46:33;;;;;;;42.05;38.45;;;;;;;12.18;78.19;102673.81;4975557;28;20030;-81
2021/03/03 08:49:00;;;;;;;43.70;40.33;;;;;;;11.86;80.64;102676.34;4973042;28;20402;-81
2021/03/03 08:51:32;;;;;;;44.85;41.55;;;;;;;12.34;82.12;102668.44;4980510;28;20037;-82
2021/03/03 08:54:07;;;;;;;36.55;33.45;;;;;;;13.22;81.48;102673.59;4963910;28;20152;-81
2021/03/03 08:56:38;;;;;;;36.45;33.17;;;;;;;13.65;74.08;102671.34;4990453;28;20034;-81
2021/03/03 08:59:05;;;;;;;43.60;40.10;;;;;;;13.66;66.53;102670.31;4991936;28;20068;-80
2021/03/03 09:01:55;;;;;;;45.15;41.55;;;;;;;13.47;65.06;102670.81;4979185;28;20034;-81
2021/03/03 09:04:28;;;;;;;35.38;32.28;;;;;;;12.35;75.27;102670.13;4978860;28;20030;-80
2021/03/03 09:07:03;;;;;;;;;;;;;;;12.93;62.33;102676.09;4961274;28;20066;-80
2021/03/03 09:09:39;;;;;;;46.42;42.72;;;;;;;14.58;60.17;102672.81;4955021;28;19953;-81
2021/03/03 09:12:08;;;;;;;47.22;43.22;;;;;;;14.38;56.84;102666.31;4954346;28;20019;-81
2021/03/03 09:14:35;;;;;;;37.75;34.47;;;;;;;13.40;61.74;102668.00;4968904;28;20622;-81
2021/03/03 09:17:04;;;;;;;39.28;35.72;;;;;;;13.39;59.25;102663.66;4953402;29;20031;-80
2021/03/03 09:19:31;;;;;;;47.45;43.78;;;;;;;13.45;68.49;102657.63;4968803;28;20457;-81
2021/03/03 09:21:57;;;;;;;42.78;39.33;;;;;;;13.78;54.43;102669.91;4953354;28;20420;-81
2021/03/03 09:24:23;;;;;;;47.70;43.88;;;;;;;13.90;53.67;102669.28;4955487;28;20023;-81
2021/03/03 09:26:49;;;;;;;40.72;36.95;;;;;;;13.93;58.29;102670.78;4957388;28;20027;-81
2021/03/03 09:29:29;;;;;;;49.08;44.95;;;;;;;14.63;54.77;102667.72;4959283;29;20031;-81
2021/03/03 09:31:55;;;;;;;48.88;45.08;;;;;;;15.17;49.87;102673.72;4959395;29;20023;-81
2021/03/03 09:34:20;;;;;;;52.33;48.40;;;;;;;15.11;47.96;102664.59;4959274;29;20416;-81
2021/03/03 09:37:00;;;;;;;42.13;38.90;;;;;;;14.52;49.68;102662.00;4959476;29;20031;-81
2021/03/03 09:39:27;;;;;;;39.15;35.97;;;;;;;15.11;49.95;102678.00;4962940;28;20027;-81
2021/03/03 09:41:58;;;;;;;48.35;44.53;;;;;;;15.07;49.43;102666.84;4960049;28;20059;-81
2021/03/03 09:44:24;;;;;;;44.63;41.10;;;;;;;14.57;49.20;102663.13;4960080;28;20031;-81
2021/03/03 09:46:56;;;;;;;39.17;35.90;;;;;;;14.28;51.73;102666.59;4959544;29;20043;-81
2021/03/03 09:49:23;;;;;;;;;;;;;;;14.63;48.93;102667.72;4961174;28;20027;-81
2021/03/03 09:51:49;;;;;;;49.75;46.00;;;;;;;14.61;47.75;102671.59;4960895;28;19917;-80
2021/03/03 09:54:35;;;;;;;47.60;43.70;;;;;;;15.17;49.11;102665.72;4960947;28;20550;-80
2021/03/03 09:57:08;;;;;;;39.03;35.67;;;;;;;15.21;48.50;102664.28;4975788;28;20054;-81
2021/03/03 09:59:44;;;;;;;37.60;34.33;;;;;;;15.47;45.54;102666.44;4960385;28;20444;-81
2021/03/03 10:02:11;;;;;;;49.95;46.15;;;;;;;15.35;47.76;102669.59;4960032;29;20027;-80
2021/03/03 10:04:39;;;;;;;38.20;34.95;;;;;;;15.78;48.60;102668.81;4963094;28;20027;-80
2021/03/03 10:07:19;;;;;;;38.92;35.63;;;;;;;16.02;44.53;102662.19;4982078;28;20105;-81
2021/03/03 10:09:46;;;;;;;40.40;36.78;;;;;;;16.09;43.11;102656.88;4981836;28;20417;-81
2021/03/03 10:12:16;;;;;;;39.63;36.33;;;;;;;16.09;43.01;102646.16;4981657;28;20022;-81
2021/03/03 10:15:11;;;;;;;37.97;34.67;;;;;;;16.78;44.23;102648.84;4981753;28;20041;-81
2021/03/03 10:17:48;;;;;;;37.63;34.53;;;;;;;16.04;42.09;102646.75;4981413;28;20481;-81
2021/03/03 10:20:48;;;;;;;35.97;32.83;;;;;;;15.98;42.51;102642.19;4982551;28;20022;-81
2021/03/03 10:23:18;;;;;;;37.75;34.63;;;;;;;16.04;42.01;102628.00;4999347;28;20036;-81
2021/03/03 10:26:05;;;;;;;38.90;35.55;;;;;;;16.24;42.60;102626.25;4981731;28;20036;-81
2021/03/03 10:28:31;;;;;;;36.65;33.55;;;;;;;16.27;44.64;102616.97;4978886;28;20459;-81
2021/03/03 10:30:59;;;;;;;35.92;33.03;;;;;;;16.09;40.21;102620.16;4985263;28;20370;-81
2021/03/03 10:33:27;;;;;;;37.53;34.33;;;;;;;16.36;43.66;102610.44;4982214;28;20053;-80
2021/03/03 10:35:54;;;;;;;37.80;34.38;;;;;;;16.31;42.43;102610.22;4981790;28;20124;-81
2021/03/03 10:38:22;;;;;;;37.22;33.72;;;;;;;16.27;41.74;102611.63;5002808;28;20022;-80
2021/03/03 10:40:49;;;;;;;38.38;35.35;;;;;;;16.19;40.21;102607.25;4998391;28;20050;-81
2021/03/03 10:43:15;;;;;;;39.33;36.10;;;;;;;16.74;40.69;102596.56;4981919;28;20053;-80
2021/03/03 10:45:42;;;;;;;36.65;33.67;;;;;;;17.82;38.24;102602.75;4998421;28;20022;-81
2021/03/03 10:48:09;;;;;;;38.95;35.75;;;;;;;17.94;37.85;102594.03;4980778;28;20030;-83
2021/03/03 10:50:38;;;;;;;35.33;32.53;;;;;;;17.51;38.36;102592.59;4979717;28;20037;-83
2021/03/03 10:53:05;;;;;;;36.13;33.03;;;;;;;17.81;39.63;102584.13;4979554;28;20026;-83
2021/03/03 10:55:36;;;;;;;37.95;34.55;;;;;;;16.91;41.28;102584.50;4970871;28;20022;-84
2021/03/03 10:58:13;;;;;;;36.05;32.58;;;;;;;17.44;42.95;102572.97;4972471;28;20150;-81
2021/03/03 11:01:06;;;;;;;37.40;34.05;;;;;;;18.14;38.97;102577.88;4973006;28;20527;-84
2021/03/03 11:03:58;;;;;;;36.90;33.95;;;;;;;17.71;39.64;102565.72;4988936;28;20026;-84
2021/03/03 11:06:35;;;;;;;35.50;32.50;;;;;;;18.75;38.92;102562.09;4978951;28;20059;-84
2021/03/03 11:09:04;;;;;;;36.42;33.40;;;;;;;18.04;37.27;102554.13;4969274;28;20041;-85
2021/03/03 11:11:35;;;;;;;35.25;32.22;;;;;;;17.12;37.71;102553.94;4969107;28;20030;-85
2021/03/03 11:14:12;;;;;;;35.13;32.35;;;;;;;18.82;36.54;102556.72;4969669;28;20798;-81
2021/03/03 11:16:58;;;;;;;35.75;33.15;;;;;;;18.62;38.45;102548.69;4983254;28;20042;-80